Time;durP1;ratioP1;P1;durP2;ratioP2;P2;SDS_P1;SDS_P2;PMS_P1;PMS_P2;Temp;Humidity;BMP_temperature;BMP_pressure;BME280_temperature;BME280_humidity;BME280_pressure;Samples;Min_cycle;Max_cycle;Signal;HPM_P1;HPM_P2
2022/07/04 00:00:19;;;;;;;17.70;9.55;;;;;;;;;;5010371;28;20030;-64
2022/07/04 00:02:46;;;;;;;17.33;10.27;;;;;;;;;;5010554;28;20057;-64
2022/07/04 00:05:12;;;;;;;17.35;10.10;;;;;;;;;;5032133;23;20599;-64
2022/07/04 00:07:39;;;;;;;18.83;9.52;;;;;;;;;;5032470;28;20025;-64
2022/07/04 00:10:05;;;;;;;16.92;9.50;;;;;;;;;;5033911;28;20018;-64
2022/07/04 00:12:31;;;;;;;17.02;10.32;;;;;;;;;;5034140;28;20033;-64
2022/07/04 00:14:57;;;;;;;20.65;9.88;;;;;;;;;;5035319;28;20500;-63
2022/07/04 00:17:23;;;;;;;17.35;9.88;;;;;;;;;;5034722;28;20094;-63
2022/07/04 00:19:49;;;;;;;16.95;10.02;;;;;;;;;;5035501;28;20478;-64
2022/07/04 00:22:15;;;;;;;16.30;9.57;;;;;;;;;;5017686;28;20033;-63
2022/07/04 00:24:41;;;;;;;16.35;9.90;;;;;;;;;;5035259;28;20036;-63
2022/07/04 00:27:07;;;;;;;16.17;9.38;;;;;;;;;;5017398;28;20465;-62
2022/07/04 00:29:33;;;;;;;16.80;9.48;;;;;;;;;;5034885;28;20117;-64
2022/07/04 00:31:59;;;;;;;16.40;8.98;;;;;;;;;;5035157;28;20520;-64
2022/07/04 00:34:26;;;;;;;18.40;9.95;;;;;;;;;;5017174;28;20021;-64
2022/07/04 00:36:52;;;;;;;16.30;9.73;;;;;;;;;;5035058;28;20022;-63
2022/07/04 00:39:18;;;;;;;17.02;9.77;;;;;;;;;;5016707;28;20060;-63
2022/07/04 00:41:44;;;;;;;15.60;9.10;;;;;;;;;;5034926;28;20057;-63
2022/07/04 00:44:11;;;;;;;16.08;9.27;;;;;;;;;;5035241;28;20111;-63
2022/07/04 00:46:37;;;;;;;17.00;9.82;;;;;;;;;;5034928;28;20030;-63
2022/07/04 00:49:07;;;;;;;16.63;9.27;;;;;;;;;;5034084;28;20021;-64
2022/07/04 00:51:33;;;;;;;17.67;9.60;;;;;;;;;;5034987;28;20028;-63
2022/07/04 00:53:59;;;;;;;22.63;9.88;;;;;;;;;;5034702;28;20028;-64
2022/07/04 00:56:26;;;;;;;16.75;10.00;;;;;;;;;;5034579;28;20100;-64
2022/07/04 00:58:53;;;;;;;17.42;10.23;;;;;;;;;;5033868;28;20036;-63
2022/07/04 01:01:19;;;;;;;18.48;10.20;;;;;;;;;;5034852;28;20026;-64
2022/07/04 01:03:45;;;;;;;18.50;9.60;;;;;;;;;;5034560;28;20075;-64
2022/07/04 01:06:12;;;;;;;17.05;9.60;;;;;;;;;;5033468;28;20401;-64
2022/07/04 01:08:38;;;;;;;20.30;10.00;;;;;;;;;;5032653;28;20036;-64
2022/07/04 01:11:04;;;;;;;17.25;10.30;;;;;;;;;;5032970;28;20048;-63
2022/07/04 01:13:30;;;;;;;17.58;10.18;;;;;;;;;;5032856;28;20478;-64
2022/07/04 01:15:56;;;;;;;20.52;10.00;;;;;;;;;;5032956;28;20029;-64
2022/07/04 01:18:22;;;;;;;16.25;9.73;;;;;;;;;;5031300;28;20032;-63
2022/07/04 01:20:48;;;;;;;18.52;9.90;;;;;;;;;;5033018;28;20025;-63
2022/07/04 01:23:15;;;;;;;18.00;10.50;;;;;;;;;;5033222;28;20046;-63
2022/07/04 01:25:42;;;;;;;17.02;10.00;;;;;;;;;;5032996;28;20025;-64
2022/07/04 01:28:08;;;;;;;18.75;9.85;;;;;;;;;;5032660;28;20390;-64
2022/07/04 01:30:34;;;;;;;17.00;9.95;;;;;;;;;;5033251;28;20466;-64
2022/07/04 01:33:00;;;;;;;18.10;9.43;;;;;;;;;;5033030;28;20053;-63
2022/07/04 01:35:26;;;;;;;17.80;10.10;;;;;;;;;;5033130;28;20036;-63
2022/07/04 01:37:52;;;;;;;20.30;11.07;;;;;;;;;;5032313;28;20026;-63
2022/07/04 01:40:18;;;;;;;18.05;10.43;;;;;;;;;;5032964;28;20080;-64
2022/07/04 01:42:44;;;;;;;17.67;9.30;;;;;;;;;;5032986;28;20017;-64
2022/07/04 01:45:10;;;;;;;16.70;10.45;;;;;;;;;;5032655;28;20531;-63
2022/07/04 01:47:37;;;;;;;17.25;10.52;;;;;;;;;;5032171;28;20029;-63
2022/07/04 01:50:03;;;;;;;17.77;10.60;;;;;;;;;;5032687;28;20540;-63
2022/07/04 01:52:29;;;;;;;19.45;10.63;;;;;;;;;;5032835;28;20034;-63
2022/07/04 01:54:55;;;;;;;16.63;10.57;;;;;;;;;;5014931;28;20143;-62
2022/07/04 01:57:21;;;;;;;21.80;11.13;;;;;;;;;;5032102;28;20105;-63
2022/07/04 02:02:32;;;;;;;17.75;9.73;;;;;;;;;;5032625;28;20512;-63
2022/07/04 02:04:58;;;;;;;17.85;11.02;;;;;;;;;;4995099;28;1074777;-65
2022/07/04 02:07:24;;;;;;;17.23;10.95;;;;;;;;;;5032531;28;20025;-64
2022/07/04 02:09:50;;;;;;;19.80;10.43;;;;;;;;;;5033490;28;20367;-64
2022/07/04 02:15:01;;;;;;;20.92;11.18;;;;;;;;;;5033306;28;20041;-63
2022/07/04 02:17:27;;;;;;;21.30;11.93;;;;;;;;;;5032547;28;20053;-64
2022/07/04 02:19:53;;;;;;;18.48;11.95;;;;;;;;;;5033061;28;20025;-64
2022/07/04 02:22:19;;;;;;;20.13;12.68;;;;;;;;;;5015154;28;20057;-61
2022/07/04 02:24:45;;;;;;;20.50;11.93;;;;;;;;;;5032516;28;20026;-62
2022/07/04 02:27:11;;;;;;;20.20;11.45;;;;;;;;;;5032016;28;20474;-61
2022/07/04 02:29:37;;;;;;;18.75;11.63;;;;;;;;;;5032653;28;20022;-63
2022/07/04 02:32:04;;;;;;;19.10;11.77;;;;;;;;;;5032899;28;20499;-62
2022/07/04 02:34:30;;;;;;;18.25;11.38;;;;;;;;;;5031116;28;20460;-63
2022/07/04 02:36:56;;;;;;;18.02;11.80;;;;;;;;;;5032871;28;20396;-64
2022/07/04 02:39:22;;;;;;;21.05;11.73;;;;;;;;;;5014544;28;20033;-60
2022/07/04 02:41:48;;;;;;;19.60;12.10;;;;;;;;;;5032860;28;20022;-62
2022/07/04 02:44:14;;;;;;;18.13;11.70;;;;;;;;;;5014935;28;20025;-62
2022/07/04 02:46:40;;;;;;;18.83;11.85;;;;;;;;;;5032447;28;20033;-62
2022/07/04 02:49:06;;;;;;;19.52;12.10;;;;;;;;;;5032054;28;20120;-62
2022/07/04 02:51:32;;;;;;;18.70;12.55;;;;;;;;;;5015045;28;20025;-63
2022/07/04 02:53:58;;;;;;;22.48;11.90;;;;;;;;;;5032648;28;20021;-64
2022/07/04 02:56:24;;;;;;;18.15;11.32;;;;;;;;;;5014381;28;20029;-63
2022/07/04 02:58:50;;;;;;;20.08;12.13;;;;;;;;;;5031380;28;20071;-63
2022/07/04 03:01:18;;;;;;;18.88;12.30;;;;;;;;;;5031938;28;20099;-64
2022/07/04 03:03:44;;;;;;;21.80;14.02;;;;;;;;;;5032647;28;20033;-62
2022/07/04 03:06:10;;;;;;;19.40;12.45;;;;;;;;;;5032073;28;20033;-65
2022/07/04 03:08:36;;;;;;;19.55;12.55;;;;;;;;;;5031457;28;20021;-64
2022/07/04 03:11:03;;;;;;;19.55;12.32;;;;;;;;;;5032247;28;20025;-64
2022/07/04 03:13:29;;;;;;;18.10;12.23;;;;;;;;;;5014625;28;20033;-62
2022/07/04 03:15:55;;;;;;;18.00;11.48;;;;;;;;;;5014433;28;20021;-62
2022/07/04 03:18:21;;;;;;;18.48;12.27;;;;;;;;;;5031686;28;20036;-63
2022/07/04 03:20:47;;;;;;;19.10;12.25;;;;;;;;;;5032243;28;20052;-61
2022/07/04 03:23:13;;;;;;;20.65;12.25;;;;;;;;;;5014403;28;20036;-62
2022/07/04 03:25:39;;;;;;;18.50;12.30;;;;;;;;;;5014302;28;20036;-63
2022/07/04 03:28:06;;;;;;;19.48;12.75;;;;;;;;;;5031162;28;20033;-63
2022/07/04 03:30:32;;;;;;;21.60;12.15;;;;;;;;;;5031918;28;20489;-62
2022/07/04 03:32:58;;;;;;;20.45;12.43;;;;;;;;;;5032182;28;20027;-64
2022/07/04 03:35:24;;;;;;;19.77;12.50;;;;;;;;;;5032040;28;20104;-64
2022/07/04 03:37:51;;;;;;;20.75;13.60;;;;;;;;;;5031124;28;20032;-64
2022/07/04 03:40:17;;;;;;;23.40;14.13;;;;;;;;;;5014390;28;20049;-65
2022/07/04 03:42:43;;;;;;;22.77;14.05;;;;;;;;;;5037936;28;20033;-63
2022/07/04 03:45:09;;;;;;;24.20;13.60;;;;;;;;;;5038469;28;20083;-63
2022/07/04 03:47:35;;;;;;;25.65;12.65;;;;;;;;;;5037715;28;20082;-63
2022/07/04 03:50:01;;;;;;;20.88;13.18;;;;;;;;;;5038443;28;20018;-62
2022/07/04 03:52:27;;;;;;;21.08;14.10;;;;;;;;;;5038425;28;20549;-60
2022/07/04 03:54:53;;;;;;;22.98;13.38;;;;;;;;;;5020664;28;20116;-63
2022/07/04 03:57:19;;;;;;;20.33;12.57;;;;;;;;;;5037613;28;20393;-64
2022/07/04 03:59:45;;;;;;;21.85;13.50;;;;;;;;;;5038177;28;20474;-64
2022/07/04 04:02:11;;;;;;;21.17;13.23;;;;;;;;;;5038203;28;20112;-64
2022/07/04 04:07:22;;;;;;;20.05;13.05;;;;;;;;;;5037594;28;20059;-63
2022/07/04 04:09:48;;;;;;;24.58;13.85;;;;;;;;;;5038204;28;20075;-63
2022/07/04 04:12:15;;;;;;;20.90;14.27;;;;;;;;;;5020628;28;20025;-63
2022/07/04 04:14:41;;;;;;;21.48;13.77;;;;;;;;;;5038153;28;20028;-62
2022/07/04 04:17:07;;;;;;;20.48;14.32;;;;;;;;;;5038198;28;20036;-63
2022/07/04 04:19:33;;;;;;;19.83;13.77;;;;;;;;;;5037642;28;20026;-62
2022/07/04 04:21:59;;;;;;;21.40;14.27;;;;;;;;;;5038324;28;20144;-62
2022/07/04 04:24:25;;;;;;;21.20;14.20;;;;;;;;;;5020629;28;20386;-61
2022/07/04 04:26:51;;;;;;;22.65;13.93;;;;;;;;;;5038309;28;20125;-61
2022/07/04 04:29:17;;;;;;;22.10;13.75;;;;;;;;;;5037493;28;20025;-61
2022/07/04 04:31:43;;;;;;;23.48;13.95;;;;;;;;;;5038080;28;20474;-62
2022/07/04 04:34:09;;;;;;;20.67;13.55;;;;;;;;;;5037971;28;20037;-61
2022/07/04 04:36:35;;;;;;;19.88;13.18;;;;;;;;;;5038079;28;20426;-61
2022/07/04 04:39:01;;;;;;;22.17;13.98;;;;;;;;;;5037276;28;20029;-60
2022/07/04 04:41:27;;;;;;;20.70;13.38;;;;;;;;;;5038066;28;20026;-57
2022/07/04 04:43:53;;;;;;;24.27;14.55;;;;;;;;;;5037749;28;20064;-61
2022/07/04 04:46:19;;;;;;;21.48;14.10;;;;;;;;;;5037834;28;20030;-60
2022/07/04 04:48:45;;;;;;;19.80;13.65;;;;;;;;;;5037056;28;20025;-62
2022/07/04 04:51:11;;;;;;;20.45;13.77;;;;;;;;;;5037774;28;20021;-61
2022/07/04 04:53:37;;;;;;;20.55;13.20;;;;;;;;;;5034132;28;20067;-60
2022/07/04 04:56:03;;;;;;;19.13;13.20;;;;;;;;;;5034983;28;20021;-62
2022/07/04 04:58:29;;;;;;;21.35;13.68;;;;;;;;;;5033851;28;20036;-62
2022/07/04 05:00:55;;;;;;;21.90;13.15;;;;;;;;;;5016766;28;20033;-61
2022/07/04 05:03:21;;;;;;;18.77;12.93;;;;;;;;;;5034455;28;20493;-62
2022/07/04 05:05:47;;;;;;;21.88;12.43;;;;;;;;;;5034226;28;20084;-61
2022/07/04 05:08:13;;;;;;;21.00;12.77;;;;;;;;;;5015789;28;20032;-60
2022/07/04 05:10:40;;;;;;;18.42;12.63;;;;;;;;;;5033896;28;20022;-62
2022/07/04 05:13:06;;;;;;;19.20;12.77;;;;;;;;;;5034127;28;20021;-62
2022/07/04 05:15:32;;;;;;;18.83;13.02;;;;;;;;;;5034049;28;20124;-62
2022/07/04 05:17:59;;;;;;;21.00;13.00;;;;;;;;;;5033423;28;20029;-62
2022/07/04 05:20:25;;;;;;;19.95;13.23;;;;;;;;;;5034000;28;20025;-62
2022/07/04 05:22:51;;;;;;;22.02;13.10;;;;;;;;;;5033861;28;20109;-63
2022/07/04 05:25:17;;;;;;;20.48;12.77;;;;;;;;;;5033692;28;20105;-63
2022/07/04 05:27:43;;;;;;;24.05;13.27;;;;;;;;;;5032646;28;20030;-63
2022/07/04 05:30:09;;;;;;;19.55;12.55;;;;;;;;;;5033648;28;20108;-66
2022/07/04 05:32:38;;;;;;;22.40;12.48;;;;;;;;;;5015732;28;20117;-60
2022/07/04 05:35:04;;;;;;;21.52;12.75;;;;;;;;;;5033221;28;20447;-61
2022/07/04 05:37:30;;;;;;;18.48;11.88;;;;;;;;;;5032990;28;20034;-61
2022/07/04 05:39:56;;;;;;;21.90;12.30;;;;;;;;;;5015899;28;20160;-60
2022/07/04 05:42:22;;;;;;;20.75;12.85;;;;;;;;;;5033921;28;20032;-63
2022/07/04 05:44:48;;;;;;;17.60;11.60;;;;;;;;;;5033617;28;20037;-61
2022/07/04 05:47:15;;;;;;;18.50;12.32;;;;;;;;;;5033199;28;20025;-63
2022/07/04 05:49:41;;;;;;;24.73;14.20;;;;;;;;;;5033507;28;20033;-63
2022/07/04 05:52:07;;;;;;;20.88;12.30;;;;;;;;;;5033697;28;20018;-63
2022/07/04 05:54:33;;;;;;;19.30;12.60;;;;;;;;;;5033408;28;20044;-61
2022/07/04 05:57:00;;;;;;;21.67;12.48;;;;;;;;;;5033088;28;20026;-62
2022/07/04 05:59:26;;;;;;;24.25;12.80;;;;;;;;;;5032539;28;20026;-58
2022/07/04 06:01:52;;;;;;;18.65;11.63;;;;;;;;;;5033460;28;20074;-59
2022/07/04 06:04:18;;;;;;;20.05;12.07;;;;;;;;;;5032752;28;20441;-62
2022/07/04 06:06:44;;;;;;;21.35;12.45;;;;;;;;;;5068767;23;20098;-64
2022/07/04 06:09:10;;;;;;;19.10;11.57;;;;;;;;;;5052771;28;20021;-63
2022/07/04 06:11:36;;;;;;;19.02;12.15;;;;;;;;;;5053258;28;20017;-64
2022/07/04 06:14:02;;;;;;;18.50;12.05;;;;;;;;;;5053612;28;20053;-64
2022/07/04 06:16:28;;;;;;;21.25;11.88;;;;;;;;;;5053819;28;20032;-64
2022/07/04 06:18:54;;;;;;;22.02;13.55;;;;;;;;;;5052824;28;20491;-64
2022/07/04 06:21:20;;;;;;;20.58;12.02;;;;;;;;;;5053463;28;20027;-64
2022/07/04 06:23:46;;;;;;;18.75;11.77;;;;;;;;;;5053671;28;20159;-63
2022/07/04 06:26:12;;;;;;;20.90;11.75;;;;;;;;;;5052987;28;20051;-63
2022/07/04 06:28:38;;;;;;;18.23;10.77;;;;;;;;;;5051994;28;20108;-63
2022/07/04 06:31:04;;;;;;;18.80;10.95;;;;;;;;;;5052989;28;20572;-63
2022/07/04 06:33:30;;;;;;;21.85;11.65;;;;;;;;;;5052741;28;20020;-63
2022/07/04 06:35:56;;;;;;;20.23;11.75;;;;;;;;;;5035115;28;20025;-63
2022/07/04 06:38:27;;;;;;;18.75;11.55;;;;;;;;;;5051824;28;20112;-63
2022/07/04 06:40:57;;;;;;;18.15;11.35;;;;;;;;;;5051905;28;20036;-63
2022/07/04 06:43:23;;;;;;;18.13;11.10;;;;;;;;;;5052095;28;20052;-63
2022/07/04 06:45:49;;;;;;;16.73;10.80;;;;;;;;;;5053099;28;20401;-63
2022/07/04 06:48:15;;;;;;;19.77;10.60;;;;;;;;;;5051439;28;20408;-63
2022/07/04 06:50:41;;;;;;;19.13;10.77;;;;;;;;;;5051866;28;20029;-63
2022/07/04 06:53:08;;;;;;;19.05;11.32;;;;;;;;;;5052588;28;20112;-63
2022/07/04 06:55:34;;;;;;;17.50;10.23;;;;;;;;;;5052195;28;20025;-62
2022/07/04 06:58:00;;;;;;;16.88;10.27;;;;;;;;;;5051275;28;20504;-62
2022/07/04 07:00:27;;;;;;;17.88;9.93;;;;;;;;;;5051815;28;20028;-62
2022/07/04 07:02:53;;;;;;;20.23;10.32;;;;;;;;;;5052239;28;20108;-62
2022/07/04 07:05:19;;;;;;;18.50;10.48;;;;;;;;;;5051583;28;20489;-62
2022/07/04 07:07:45;;;;;;;17.92;10.57;;;;;;;;;;5051335;28;20032;-62
2022/07/04 07:10:11;;;;;;;16.15;10.20;;;;;;;;;;5052033;28;20103;-63
2022/07/04 07:12:37;;;;;;;18.67;10.15;;;;;;;;;;5034401;28;20021;-62
2022/07/04 07:15:03;;;;;;;30.00;11.73;;;;;;;;;;5052058;28;20040;-62
2022/07/04 07:17:29;;;;;;;17.17;9.77;;;;;;;;;;5050633;28;20036;-64
2022/07/04 07:19:55;;;;;;;16.33;10.32;;;;;;;;;;5052228;28;20112;-64
2022/07/04 07:22:21;;;;;;;16.25;9.55;;;;;;;;;;5033662;28;20112;-64
2022/07/04 07:24:47;;;;;;;23.67;12.40;;;;;;;;;;5052005;28;20017;-63
2022/07/04 07:27:13;;;;;;;23.00;12.70;;;;;;;;;;5051019;28;20067;-63
2022/07/04 07:29:39;;;;;;;17.02;10.38;;;;;;;;;;5051783;28;20029;-63
2022/07/04 07:32:06;;;;;;;19.05;11.30;;;;;;;;;;5051675;28;20061;-63
2022/07/04 07:34:32;;;;;;;21.80;10.27;;;;;;;;;;5051540;28;20029;-64
2022/07/04 07:36:58;;;;;;;17.67;10.20;;;;;;;;;;5051542;28;20029;-63
2022/07/04 07:39:24;;;;;;;16.52;9.80;;;;;;;;;;5050973;28;20469;-63
2022/07/04 07:41:50;;;;;;;16.45;10.18;;;;;;;;;;5051633;28;20036;-63
2022/07/04 07:44:16;;;;;;;17.17;9.63;;;;;;;;;;5051629;28;20025;-65
2022/07/04 07:46:42;;;;;;;18.20;9.93;;;;;;;;;;5033600;28;20037;-64
2022/07/04 07:49:08;;;;;;;16.60;9.52;;;;;;;;;;5050778;28;20027;-63
2022/07/04 07:51:34;;;;;;;17.40;9.85;;;;;;;;;;5051735;28;20111;-65
2022/07/04 07:54:00;;;;;;;16.50;8.80;;;;;;;;;;5051629;28;20043;-63
2022/07/04 07:56:26;;;;;;;16.40;8.90;;;;;;;;;;5051441;28;20056;-63
2022/07/04 07:58:52;;;;;;;15.80;9.70;;;;;;;;;;5050934;28;20065;-64
2022/07/04 08:01:20;;;;;;;15.27;9.48;;;;;;;;;;5051683;28;20044;-65
2022/07/04 08:06:31;;;;;;;17.95;9.30;;;;;;;;;;5051059;28;20064;-68
2022/07/04 08:08:57;;;;;;;19.80;9.20;;;;;;;;;;5046715;28;20028;-68
2022/07/04 08:11:23;;;;;;;15.05;9.20;;;;;;;;;;5036516;28;20093;-68
2022/07/04 08:13:48;;;;;;;16.30;8.98;;;;;;;;;;5051460;28;20044;-68
2022/07/04 08:16:14;;;;;;;16.15;9.50;;;;;;;;;;5042135;28;20440;-68
2022/07/04 08:18:40;;;;;;;17.15;9.35;;;;;;;;;;5031259;28;20108;-68
2022/07/04 08:21:07;;;;;;;17.40;10.30;;;;;;;;;;5041629;28;20044;-68
2022/07/04 08:23:33;;;;;;;15.95;10.30;;;;;;;;;;5051879;28;20032;-68
2022/07/04 08:26:00;;;;;;;15.65;9.50;;;;;;;;;;5032394;28;20025;-68
2022/07/04 08:28:26;;;;;;;16.63;9.55;;;;;;;;;;5033896;28;20025;-68
2022/07/04 08:30:52;;;;;;;18.05;9.60;;;;;;;;;;5035821;28;20021;-68
2022/07/04 08:33:18;;;;;;;14.90;9.20;;;;;;;;;;5036025;28;20026;-68
2022/07/04 08:35:44;;;;;;;17.30;9.85;;;;;;;;;;5037967;28;20025;-69
2022/07/04 08:38:10;;;;;;;14.55;9.13;;;;;;;;;;5036036;28;20032;-67
2022/07/04 08:40:37;;;;;;;18.77;9.70;;;;;;;;;;5038104;28;20029;-67
2022/07/04 08:43:03;;;;;;;15.40;9.60;;;;;;;;;;5058788;28;20481;-68
2022/07/04 08:45:32;;;;;;;16.90;10.55;;;;;;;;;;5058728;28;20025;-64
2022/07/04 08:48:01;;;;;;;15.77;9.32;;;;;;;;;;5055912;28;20013;-64
2022/07/04 08:50:30;;;;;;;17.98;10.57;;;;;;;;;;5056097;28;20021;-67
2022/07/04 08:53:03;;;;;;;15.60;10.15;;;;;;;;;;5056158;28;20017;-65
2022/07/04 08:58:30;;;;;;;15.95;10.25;;;;;;;;;;5055231;28;20043;-65
2022/07/04 09:00:57;;;;;;;15.10;9.65;;;;;;;;;;5056361;28;20056;-67
2022/07/04 09:03:23;;;;;;;15.90;9.45;;;;;;;;;;5056638;28;20036;-65
2022/07/04 09:05:49;;;;;;;15.70;9.95;;;;;;;;;;5037907;28;20124;-66
2022/07/04 09:08:16;;;;;;;14.63;9.45;;;;;;;;;;5055022;28;20013;-65
2022/07/04 09:10:42;;;;;;;16.15;10.30;;;;;;;;;;5056082;28;20052;-64
2022/07/04 09:13:09;;;;;;;18.02;10.55;;;;;;;;;;5039307;28;20021;-66
2022/07/04 09:15:35;;;;;;;17.17;9.80;;;;;;;;;;5056684;28;20143;-65
2022/07/04 09:18:02;;;;;;;14.85;9.93;;;;;;;;;;5047691;28;20397;-67
2022/07/04 09:20:28;;;;;;;16.73;9.93;;;;;;;;;;5034651;28;20025;-65
2022/07/04 09:22:55;;;;;;;14.98;9.60;;;;;;;;;;5034117;28;20091;-66
2022/07/04 09:25:22;;;;;;;15.15;9.38;;;;;;;;;;5034861;28;20021;-65
2022/07/04 09:27:52;;;;;;;16.13;9.65;;;;;;;;;;5016156;28;20060;-65
2022/07/04 09:30:20;;;;;;;14.60;9.10;;;;;;;;;;5034611;28;20025;-64
2022/07/04 09:33:04;;;;;;;17.02;9.68;;;;;;;;;;5034499;28;20437;-65
2022/07/04 09:35:31;;;;;;;16.63;9.38;;;;;;;;;;5016466;28;20397;-63
2022/07/04 09:38:01;;;;;;;15.43;9.50;;;;;;;;;;5015841;28;20049;-65
2022/07/04 09:40:27;;;;;;;14.68;9.00;;;;;;;;;;5033581;28;20029;-66
2022/07/04 09:42:54;;;;;;;16.73;9.80;;;;;;;;;;5038004;28;20454;-66
2022/07/04 09:45:24;;;;;;;15.57;8.85;;;;;;;;;;5050894;28;20104;-65
2022/07/04 09:47:50;;;;;;;15.48;9.52;;;;;;;;;;5053318;28;20431;-63
2022/07/04 09:50:19;;;;;;;15.35;9.13;;;;;;;;;;5036206;28;20029;-63
2022/07/04 09:52:45;;;;;;;;;;;;;;;;;;5054001;28;20420;-64
2022/07/04 09:55:11;;;;;;;16.17;9.23;;;;;;;;;;5054281;28;19905;-65
2022/07/04 09:57:37;;;;;;;14.85;8.70;;;;;;;;;;5053803;28;20025;-65
2022/07/04 10:00:22;;;;;;;15.82;8.85;;;;;;;;;;5053828;28;20024;-65
2022/07/04 10:02:48;;;;;;;15.07;9.07;;;;;;;;;;5053615;28;20021;-64
2022/07/04 10:05:19;;;;;;;14.40;9.10;;;;;;;;;;5053711;28;20054;-65
2022/07/04 10:07:47;;;;;;;16.92;9.20;;;;;;;;;;5053184;28;20448;-67
2022/07/04 10:10:25;;;;;;;16.17;9.15;;;;;;;;;;5053171;28;20028;-66
2022/07/04 10:12:52;;;;;;;14.82;8.65;;;;;;;;;;5053457;28;20021;-65
2022/07/04 10:15:19;;;;;;;15.88;8.73;;;;;;;;;;5035666;28;20033;-64
2022/07/04 10:17:48;;;;;;;16.98;8.68;;;;;;;;;;5051904;28;20037;-66
2022/07/04 10:20:14;;;;;;;14.98;8.88;;;;;;;;;;5053496;28;20078;-66
2022/07/04 10:22:43;;;;;;;19.88;9.18;;;;;;;;;;5053177;28;20088;-66
2022/07/04 10:25:10;;;;;;;14.43;8.80;;;;;;;;;;5052479;28;20021;-51
2022/07/04 10:27:38;;;;;;;21.48;9.45;;;;;;;;;;5052678;28;20060;-57
2022/07/04 10:30:07;;;;;;;17.38;9.93;;;;;;;;;;5053098;28;20441;-55
2022/07/04 10:32:36;;;;;;;16.88;9.55;;;;;;;;;;5053102;28;20147;-56
2022/07/04 10:35:03;;;;;;;14.77;9.00;;;;;;;;;;5053043;28;20437;-55
2022/07/04 10:37:47;;;;;;;17.70;9.40;;;;;;;;;;5034060;28;20035;-52
2022/07/04 10:40:36;;;;;;;17.17;9.48;;;;;;;;;;5054229;28;20033;-51
2022/07/04 10:43:02;;;;;;;23.70;10.25;;;;;;;;;;5053770;28;20029;-59
2022/07/04 10:45:34;;;;;;;15.05;9.70;;;;;;;;;;5053138;28;20378;-57
2022/07/04 10:48:00;;;;;;;15.07;9.60;;;;;;;;;;5036648;28;20493;-53
2022/07/04 10:50:29;;;;;;;14.38;9.48;;;;;;;;;;5055263;28;20047;-52
2022/07/04 10:53:09;;;;;;;15.00;9.93;;;;;;;;;;5056169;28;20021;-58
2022/07/04 10:55:35;;;;;;;15.88;10.07;;;;;;;;;;5057372;28;20029;-55
2022/07/04 10:58:01;;;;;;;15.57;10.10;;;;;;;;;;5058167;28;20044;-56
2022/07/04 11:00:27;;;;;;;15.82;10.60;;;;;;;;;;5057899;28;20059;-58
2022/07/04 11:03:13;;;;;;;16.30;10.32;;;;;;;;;;5055192;28;20029;-55
2022/07/04 11:05:39;;;;;;;15.68;10.50;;;;;;;;;;5035192;28;20393;-53
2022/07/04 11:08:06;;;;;;;14.82;10.60;;;;;;;;;;5033682;28;20028;-55
2022/07/04 11:10:35;;;;;;;14.80;10.40;;;;;;;;;;5052054;28;20028;-53
2022/07/04 11:13:08;;;;;;;14.75;10.35;;;;;;;;;;5052408;28;20017;-54
2022/07/04 11:15:34;;;;;;;14.90;9.93;;;;;;;;;;5052203;28;20025;-56
2022/07/04 11:18:01;;;;;;;15.13;10.50;;;;;;;;;;5051740;28;20052;-55
2022/07/04 11:20:28;;;;;;;15.75;11.25;;;;;;;;;;5052238;28;20029;-55
2022/07/04 11:23:04;;;;;;;17.90;11.57;;;;;;;;;;5052337;28;20103;-55
2022/07/04 11:25:30;;;;;;;15.70;11.30;;;;;;;;;;5034040;28;20035;-55
2022/07/04 11:27:56;;;;;;;18.80;12.10;;;;;;;;;;5034021;28;20020;-61
2022/07/04 11:30:22;;;;;;;22.10;11.50;;;;;;;;;;5052368;28;20166;-57
2022/07/04 11:32:48;;;;;;;16.73;11.10;;;;;;;;;;5052473;28;20017;-61
2022/07/04 11:35:14;;;;;;;18.20;11.13;;;;;;;;;;5052073;28;20481;-60
2022/07/04 11:37:43;;;;;;;15.27;10.65;;;;;;;;;;5033523;28;20028;-62
2022/07/04 11:45:48;;;;;;;18.77;10.93;;;;;;;;;;5052361;28;20095;-60
2022/07/04 11:48:23;;;;;;;17.08;11.20;;;;;;;;;;5051538;28;20432;-55
2022/07/04 11:50:49;;;;;;;19.02;11.73;;;;;;;;;;5052061;28;20028;-60
2022/07/04 11:53:16;;;;;;;16.98;11.60;;;;;;;;;;5052368;28;20021;-58
2022/07/04 11:55:56;;;;;;;17.20;10.90;;;;;;;;;;5052591;28;20487;-60
2022/07/04 11:58:22;;;;;;;16.30;10.98;;;;;;;;;;5051785;28;20396;-56
2022/07/04 12:00:48;;;;;;;14.85;10.55;;;;;;;;;;5052074;28;20032;-59
2022/07/04 12:03:14;;;;;;;17.67;11.07;;;;;;;;;;5054243;28;20028;-57
2022/07/04 12:05:41;;;;;;;17.42;10.90;;;;;;;;;;5057145;28;20029;-60
2022/07/04 12:08:08;;;;;;;15.90;10.90;;;;;;;;;;5053305;28;20028;-61
2022/07/04 12:10:34;;;;;;;16.23;11.32;;;;;;;;;;5053707;28;20056;-60
2022/07/04 12:13:03;;;;;;;16.80;11.35;;;;;;;;;;5054347;28;20032;-60
2022/07/04 12:15:38;;;;;;;15.70;10.98;;;;;;;;;;5035773;28;20025;-62
2022/07/04 12:18:05;;;;;;;15.82;11.00;;;;;;;;;;5052915;28;20075;-60
2022/07/04 12:20:32;;;;;;;16.65;11.30;;;;;;;;;;5053563;28;20047;-61
2022/07/04 12:23:00;;;;;;;15.32;11.25;;;;;;;;;;5054705;28;20033;-61
2022/07/04 12:25:29;;;;;;;16.10;10.98;;;;;;;;;;5055260;28;20021;-60
2022/07/04 12:28:00;;;;;;;17.17;11.10;;;;;;;;;;5036219;28;20055;-60
2022/07/04 12:30:27;;;;;;;16.33;11.00;;;;;;;;;;5055429;28;20021;-61
2022/07/04 12:32:54;;;;;;;16.33;10.93;;;;;;;;;;5037330;28;20408;-60
2022/07/04 12:35:49;;;;;;;15.43;10.73;;;;;;;;;;5055054;28;20066;-61
2022/07/04 12:38:17;;;;;;;15.10;10.70;;;;;;;;;;5051777;28;20052;-62
2022/07/04 12:40:51;;;;;;;16.50;10.95;;;;;;;;;;5037214;28;20028;-61
2022/07/04 12:43:17;;;;;;;17.10;11.50;;;;;;;;;;5055391;28;20040;-61
2022/07/04 12:45:47;;;;;;;16.95;11.10;;;;;;;;;;5055023;28;20036;-61
2022/07/04 12:48:21;;;;;;;16.05;11.50;;;;;;;;;;5054505;28;20021;-56
2022/07/04 12:50:48;;;;;;;16.63;10.90;;;;;;;;;;5055055;28;20029;-57
2022/07/04 12:53:14;;;;;;;15.75;11.02;;;;;;;;;;5055338;28;20025;-56
2022/07/04 12:55:44;;;;;;;15.40;10.30;;;;;;;;;;5048276;28;20036;-55
2022/07/04 12:58:10;;;;;;;15.43;10.60;;;;;;;;;;5033889;28;20029;-51
2022/07/04 13:00:36;;;;;;;18.83;11.57;;;;;;;;;;5034444;28;20436;-58
2022/07/04 13:03:02;;;;;;;18.45;11.30;;;;;;;;;;5034782;28;20033;-56
2022/07/04 13:05:29;;;;;;;14.87;10.50;;;;;;;;;;4688143;28;10000003;-56
2022/07/04 13:07:55;;;;;;;15.85;11.13;;;;;;;;;;5050371;28;20271;-56
2022/07/04 13:10:21;;;;;;;15.32;10.80;;;;;;;;;;5033708;28;20021;-56
2022/07/04 13:12:47;;;;;;;16.52;11.10;;;;;;;;;;5051765;28;20056;-58
2022/07/04 13:15:13;;;;;;;17.80;10.77;;;;;;;;;;5031906;28;20064;-57
2022/07/04 13:17:39;;;;;;;16.20;10.88;;;;;;;;;;5031982;28;20749;-58
2022/07/04 13:20:05;;;;;;;14.90;10.98;;;;;;;;;;5051020;28;20029;-56
2022/07/04 13:22:31;;;;;;;15.75;10.88;;;;;;;;;;5050362;28;20029;-55
2022/07/04 13:24:58;;;;;;;16.13;10.85;;;;;;;;;;5050906;28;20588;-59
2022/07/04 13:27:25;;;;;;;16.80;10.80;;;;;;;;;;5050613;28;20596;-58
2022/07/04 13:29:51;;;;;;;16.00;10.90;;;;;;;;;;5050230;28;20025;-59
2022/07/04 13:32:17;;;;;;;15.80;10.88;;;;;;;;;;5050386;28;20021;-57
2022/07/04 13:34:43;;;;;;;16.77;11.23;;;;;;;;;;5050638;28;20509;-60
2022/07/04 13:37:09;;;;;;;17.02;10.80;;;;;;;;;;5050287;28;20048;-60
2022/07/04 13:39:35;;;;;;;15.27;10.90;;;;;;;;;;5050734;28;20037;-59
2022/07/04 13:42:01;;;;;;;17.33;10.93;;;;;;;;;;5049983;28;20401;-58
2022/07/04 13:44:27;;;;;;;18.30;11.20;;;;;;;;;;5050662;28;20040;-59
2022/07/04 13:46:56;;;;;;;16.90;11.43;;;;;;;;;;5032778;28;20029;-57
2022/07/04 13:49:22;;;;;;;16.67;10.90;;;;;;;;;;5049839;28;20009;-59
2022/07/04 13:51:48;;;;;;;16.25;11.32;;;;;;;;;;5051564;28;20040;-58
2022/07/04 13:54:14;;;;;;;16.95;11.48;;;;;;;;;;5051048;28;20021;-60
2022/07/04 13:56:41;;;;;;;16.83;11.73;;;;;;;;;;5051467;28;20108;-60
2022/07/04 13:59:08;;;;;;;17.48;11.00;;;;;;;;;;5051375;28;20248;-59
2022/07/04 14:01:34;;;;;;;16.80;11.00;;;;;;;;;;5051585;28;20108;-56
2022/07/04 14:04:00;;;;;;;15.85;10.80;;;;;;;;;;5051797;28;20039;-57
2022/07/04 14:06:26;;;;;;;15.98;11.35;;;;;;;;;;5051248;28;20037;-58
2022/07/04 14:08:52;;;;;;;17.60;11.68;;;;;;;;;;5032895;28;20508;-59
2022/07/04 14:11:18;;;;;;;15.82;11.27;;;;;;;;;;5050996;28;20040;-60
2022/07/04 14:13:44;;;;;;;16.33;11.43;;;;;;;;;;5051759;28;20117;-59
2022/07/04 14:16:10;;;;;;;17.50;11.18;;;;;;;;;;5050678;28;20147;-59
2022/07/04 14:18:36;;;;;;;15.02;10.38;;;;;;;;;;5049091;28;20040;-60
2022/07/04 14:21:02;;;;;;;17.40;10.68;;;;;;;;;;5049912;28;20033;-60
2022/07/04 14:23:41;;;;;;;16.75;11.07;;;;;;;;;;5049211;28;20029;-59
2022/07/04 14:26:08;;;;;;;16.13;11.10;;;;;;;;;;5047492;28;20030;-58
2022/07/04 14:28:34;;;;;;;16.90;11.23;;;;;;;;;;5047187;28;20029;-60
2022/07/04 14:31:01;;;;;;;17.75;10.95;;;;;;;;;;5030179;28;20032;-61
2022/07/04 14:33:27;;;;;;;15.13;11.30;;;;;;;;;;5048355;28;20025;-59
2022/07/04 14:35:53;;;;;;;16.77;11.30;;;;;;;;;;5048233;28;20114;-59
2022/07/04 14:38:19;;;;;;;15.73;11.43;;;;;;;;;;5046123;28;20059;-60